Time;durP1;ratioP1;P1;durP2;ratioP2;P2;SDS_P1;SDS_P2;PMS_P1;PMS_P2;Temp;Humidity;BMP_temperature;BMP_pressure;BME280_temperature;BME280_humidity;BME280_pressure;Samples;Min_cycle;Max_cycle;Signal;HPM_P1;HPM_P2
2021/08/18 00:02:04;;;;;;;27.33;12.30;;;;;;;13.48;100.00;99157.84;10335733;28;20181;-78
2021/08/18 00:07:24;;;;;;;28.27;13.17;;;;;;;13.46;100.00;99135.38;10335244;28;20668;-78
2021/08/18 00:12:43;;;;;;;23.93;11.87;;;;;;;13.50;100.00;99147.13;10334383;28;20252;-77
2021/08/18 00:18:03;;;;;;;22.67;11.80;;;;;;;13.54;100.00;99140.34;10336246;28;20534;-78
2021/08/18 00:23:22;;;;;;;30.17;11.77;;;;;;;13.52;100.00;99148.31;10335597;28;20185;-78
2021/08/18 00:28:42;;;;;;;28.87;12.07;;;;;;;13.57;100.00;99142.28;10333175;28;20846;-78
2021/08/18 00:34:01;;;;;;;22.47;12.13;;;;;;;13.62;100.00;99150.13;10334500;28;20201;-78
2021/08/18 00:39:20;;;;;;;23.80;11.37;;;;;;;13.57;100.00;99142.28;10334577;28;20181;-77
2021/08/18 00:44:39;;;;;;;24.10;11.80;;;;;;;13.70;100.00;99138.53;10333391;28;20680;-78
2021/08/18 00:49:58;;;;;;;22.87;10.20;;;;;;;13.72;100.00;99141.69;10320365;28;20173;-77
2021/08/18 00:55:19;;;;;;;18.40;10.73;;;;;;;13.75;100.00;99135.28;10333112;28;20264;-78
2021/08/18 01:00:39;;;;;;;25.20;10.60;;;;;;;13.73;100.00;99136.91;10334630;28;20182;-77
2021/08/18 01:05:58;;;;;;;20.20;10.73;;;;;;;13.67;100.00;99139.38;10334266;28;20212;-77
2021/08/18 01:11:17;;;;;;;20.00;11.23;;;;;;;13.63;100.00;99133.13;10333283;28;20173;-78
2021/08/18 01:16:38;;;;;;;21.30;10.87;;;;;;;13.73;100.00;99136.91;10334283;28;20205;-78
2021/08/18 01:21:57;;;;;;;18.30;10.27;;;;;;;13.68;100.00;99138.19;10333713;28;20185;-78
2021/08/18 01:27:16;;;;;;;23.00;11.37;;;;;;;13.63;100.00;99135.91;10331705;28;20256;-78
2021/08/18 01:32:49;;;;;;;17.10;10.50;;;;;;;13.71;100.00;99129.06;10333545;28;20287;-79
2021/08/18 01:38:11;;;;;;;21.60;10.33;;;;;;;13.77;100.00;99127.38;10332520;28;20567;-78
2021/08/18 01:43:30;;;;;;;16.73;9.23;;;;;;;13.77;100.00;99132.91;10331784;28;20225;-78
2021/08/18 01:48:49;;;;;;;24.03;10.23;;;;;;;13.79;100.00;99130.50;10332577;28;20293;-79
2021/08/18 01:54:09;;;;;;;17.17;10.10;;;;;;;13.86;100.00;99135.13;10333072;28;20236;-78
2021/08/18 01:59:28;;;;;;;16.87;9.50;;;;;;;13.92;100.00;99122.41;10331714;28;20181;-78
2021/08/18 02:04:47;;;;;;;26.70;9.67;;;;;;;13.86;100.00;99124.84;10332969;28;20181;-79
2021/08/18 02:10:13;;;;;;;15.40;9.67;;;;;;;13.93;100.00;99130.28;10331570;28;20280;-78
2021/08/18 02:15:33;;;;;;;15.40;9.60;;;;;;;13.99;100.00;99130.56;10332684;28;20265;-78
2021/08/18 02:20:53;;;;;;;14.87;9.13;;;;;;;13.99;100.00;99131.34;10332720;28;20585;-78
2021/08/18 02:26:12;;;;;;;17.37;8.67;;;;;;;13.96;100.00;99125.88;10331198;28;20209;-78
2021/08/18 02:31:32;;;;;;;17.73;9.67;;;;;;;13.95;100.00;99119.56;10331507;28;20201;-78
2021/08/18 02:36:51;;;;;;;15.20;11.23;;;;;;;14.00;100.00;99126.63;10335334;28;20189;-78
2021/08/18 02:42:11;;;;;;;18.83;9.57;;;;;;;13.88;100.00;99122.47;10338504;28;20233;-78
2021/08/18 02:47:30;;;;;;;17.30;8.80;;;;;;;13.94;100.00;99131.84;10339156;28;20205;-78
2021/08/18 02:52:49;;;;;;;16.27;9.27;;;;;;;13.98;100.00;99129.78;10339691;28;20268;-78
2021/08/18 02:58:08;;;;;;;16.60;9.13;;;;;;;13.94;100.00;99115.25;10338212;28;20264;-78
2021/08/18 03:03:27;;;;;;;14.30;8.07;;;;;;;13.96;100.00;99123.09;10339082;28;20224;-78
2021/08/18 03:08:46;;;;;;;17.93;8.87;;;;;;;13.98;100.00;99115.19;10338501;28;20205;-78
2021/08/18 03:14:05;;;;;;;12.23;8.00;;;;;;;14.02;100.00;99118.66;10337623;28;20641;-78
2021/08/18 03:19:24;;;;;;;12.00;7.83;;;;;;;14.01;100.00;99119.88;10337990;28;20185;-78
2021/08/18 03:24:44;;;;;;;17.57;9.10;;;;;;;14.03;100.00;99120.22;10337400;28;20177;-78
2021/08/18 03:30:05;;;;;;;13.77;7.53;;;;;;;14.04;100.00;99108.75;10338224;28;20193;-78
2021/08/18 03:35:24;;;;;;;13.83;7.70;;;;;;;14.08;100.00;99108.69;10337994;28;20189;-79
2021/08/18 03:40:44;;;;;;;9.73;6.70;;;;;;;14.01;100.00;99117.13;10336396;28;20217;-79
2021/08/18 03:46:03;;;;;;;10.40;7.40;;;;;;;14.00;100.00;99107.25;10336658;28;20205;-78
2021/08/18 03:51:22;;;;;;;11.10;7.80;;;;;;;14.03;100.00;99101.66;10337429;28;20169;-78
2021/08/18 03:56:41;;;;;;;15.57;7.50;;;;;;;14.09;100.00;99111.03;10335824;28;20177;-78
2021/08/18 04:02:00;;;;;;;10.73;6.80;;;;;;;14.18;100.00;99111.28;10336935;28;20186;-78
2021/08/18 04:07:19;;;;;;;10.03;6.67;;;;;;;14.09;100.00;99108.25;10336385;28;20205;-78
2021/08/18 04:13:10;;;;;;;11.37;6.50;;;;;;;14.18;100.00;99113.25;10335123;28;20185;-78
2021/08/18 04:18:29;;;;;;;12.30;6.40;;;;;;;14.19;100.00;99115.63;10303249;28;20193;-78
2021/08/18 04:23:48;;;;;;;10.43;7.20;;;;;;;14.23;100.00;99115.56;10336088;28;20182;-78
2021/08/18 04:29:07;;;;;;;13.03;5.87;;;;;;;14.27;100.00;99121.81;10334031;28;20284;-78
2021/08/18 04:34:26;;;;;;;8.53;6.30;;;;;;;14.25;100.00;99122.22;10335629;28;20177;-78
2021/08/18 04:39:45;;;;;;;11.00;6.47;;;;;;;14.29;100.00;99120.19;10334438;28;20189;-78
2021/08/18 04:45:06;;;;;;;7.87;6.50;;;;;;;14.38;100.00;99123.16;10334602;28;20229;-78
2021/08/18 04:50:25;;;;;;;11.20;5.63;;;;;;;14.39;100.00;99121.97;10334203;28;20256;-78
2021/08/18 04:55:44;;;;;;;8.07;5.93;;;;;;;14.34;100.00;99110.63;10332745;28;20216;-78
2021/08/18 05:01:03;;;;;;;7.80;5.10;;;;;;;14.37;100.00;99121.63;10332924;28;20185;-79
2021/08/18 05:06:22;;;;;;;13.90;5.90;;;;;;;14.46;100.00;99121.84;10334004;28;20213;-79
2021/08/18 05:11:41;;;;;;;9.70;5.80;;;;;;;14.52;100.00;99120.16;10331228;28;20182;-77
2021/08/18 05:17:00;;;;;;;6.93;5.83;;;;;;;14.62;100.00;99119.16;10313809;28;20189;-77
2021/08/18 05:22:19;;;;;;;7.23;5.57;;;;;;;14.66;100.00;99120.66;10310475;28;20185;-78
2021/08/18 05:27:39;;;;;;;8.63;6.07;;;;;;;14.75;100.00;99107.03;10332258;28;20205;-78
2021/08/18 05:32:58;;;;;;;5.57;5.00;;;;;;;14.70;100.00;99118.59;10333720;28;20177;-78
2021/08/18 05:38:17;;;;;;;6.00;5.33;;;;;;;14.68;100.00;99111.94;10332729;28;20169;-78
2021/08/18 05:43:36;;;;;;;6.90;4.63;;;;;;;14.72;100.00;99110.66;10331360;28;20213;-78
2021/08/18 05:48:55;;;;;;;6.63;4.53;;;;;;;14.85;100.00;99113.56;10332723;28;20213;-78
2021/08/18 05:54:14;;;;;;;6.67;4.17;;;;;;;14.88;100.00;99107.97;10332243;28;20636;-78
2021/08/18 05:59:34;;;;;;;4.47;4.00;;;;;;;15.00;100.00;99112.06;10331525;28;20181;-79
2021/08/18 06:04:52;;;;;;;5.60;5.00;;;;;;;14.96;100.00;99112.16;10332130;28;20186;-79
2021/08/18 06:10:11;;;;;;;5.40;4.90;;;;;;;14.83;100.00;99115.97;10332768;28;20817;-79
2021/08/18 06:15:32;;;;;;;7.03;5.17;;;;;;;14.94;100.00;99117.31;10334925;28;20197;-78
2021/08/18 06:20:51;;;;;;;5.07;4.67;;;;;;;15.12;100.00;99122.50;10300613;28;20170;-79
2021/08/18 06:26:10;;;;;;;5.27;4.87;;;;;;;15.20;100.00;99128.22;10313411;28;20660;-79
2021/08/18 06:31:29;;;;;;;7.37;5.50;;;;;;;15.19;100.00;99126.66;10340574;28;20190;-79
2021/08/18 06:36:48;;;;;;;5.30;4.80;;;;;;;15.11;100.00;99120.91;10339187;28;20553;-79
2021/08/18 06:42:07;;;;;;;6.70;5.13;;;;;;;15.02;100.00;99126.28;10338550;28;20221;-79
2021/08/18 06:47:26;;;;;;;6.17;5.30;;;;;;;15.14;100.00;99134.72;10338781;28;20213;-80
2021/08/18 06:52:45;;;;;;;4.60;4.20;;;;;;;15.26;100.00;99139.63;10339326;28;20193;-79
2021/08/18 06:58:05;;;;;;;5.40;5.00;;;;;;;15.41;100.00;99141.69;10337338;28;20227;-79
2021/08/18 07:03:24;;;;;;;5.03;4.47;;;;;;;15.46;100.00;99143.94;10339194;28;20189;-80
2021/08/18 07:08:43;;;;;;;5.63;4.80;;;;;;;15.48;100.00;99144.28;10338577;28;20213;-79
2021/08/18 07:14:05;;;;;;;4.60;3.93;;;;;;;15.54;100.00;99145.34;10337751;28;20246;-79
2021/08/18 07:19:24;;;;;;;4.07;3.70;;;;;;;15.50;100.00;99158.50;10337519;28;20185;-79
2021/08/18 07:24:43;;;;;;;3.87;3.57;;;;;;;15.46;100.00;99157.78;10337496;28;20648;-79
2021/08/18 07:30:03;;;;;;;6.13;5.60;;;;;;;15.63;100.00;99156.63;10338100;28;20642;-81
2021/08/18 07:35:22;;;;;;;5.43;4.50;;;;;;;15.56;100.00;99153.22;10337895;28;20644;-80
2021/08/18 07:40:40;;;;;;;5.47;3.70;;;;;;;15.64;100.00;99157.38;10336061;28;20221;-81
2021/08/18 07:46:00;;;;;;;5.20;4.63;;;;;;;15.65;100.00;99161.72;10337460;28;20224;-81
2021/08/18 07:51:19;;;;;;;4.77;4.37;;;;;;;15.66;100.00;99160.50;10337594;28;20260;-80
2021/08/18 07:56:38;;;;;;;3.57;3.33;;;;;;;15.61;100.00;99166.59;10335373;28;20628;-80
2021/08/18 08:01:59;;;;;;;3.80;3.50;;;;;;;15.52;100.00;99160.84;10337076;28;20684;-79
2021/08/18 08:07:18;;;;;;;3.80;3.50;;;;;;;15.58;100.00;99162.69;10336295;28;20209;-80
2021/08/18 08:12:38;;;;;;;3.67;3.47;;;;;;;15.69;100.00;99170.75;10335406;28;20181;-82
2021/08/18 08:17:57;;;;;;;3.67;3.47;;;;;;;15.83;100.00;99167.66;10336362;28;20177;-81
2021/08/18 08:23:16;;;;;;;3.80;3.50;;;;;;;15.86;100.00;99156.47;10336059;28;20260;-77
2021/08/18 08:28:35;;;;;;;4.67;4.17;;;;;;;16.01;100.00;99157.69;10294152;28;20239;-79
2021/08/18 08:33:54;;;;;;;5.00;3.93;;;;;;;15.92;100.00;99168.59;10294618;28;20522;-77
2021/08/18 08:39:13;;;;;;;4.07;3.77;;;;;;;15.96;100.00;99177.63;10295417;28;20544;-78
2021/08/18 08:44:33;;;;;;;3.23;3.03;;;;;;;15.90;100.00;99182.16;10306108;28;20225;-77
2021/08/18 08:49:53;;;;;;;2.50;2.40;;;;;;;15.92;100.00;99185.25;10295026;28;20178;-77
2021/08/18 08:55:12;;;;;;;3.30;3.00;;;;;;;15.86;100.00;99191.78;10308196;28;20204;-77
2021/08/18 09:00:31;;;;;;;3.23;2.83;;;;;;;15.59;100.00;99188.41;10334845;28;20193;-76
2021/08/18 09:05:52;;;;;;;6.70;3.83;;;;;;;15.74;100.00;99193.22;10333961;28;20200;-82
2021/08/18 09:11:15;;;;;;;4.80;3.27;;;;;;;15.72;100.00;99201.19;10333569;28;20308;-81
2021/08/18 09:16:34;;;;;;;3.57;3.37;;;;;;;15.84;100.00;99200.50;10334620;28;20186;-82
2021/08/18 09:21:53;;;;;;;4.00;3.70;;;;;;;15.84;100.00;99197.72;10334400;28;20542;-79
2021/08/18 09:27:12;;;;;;;4.00;3.70;;;;;;;15.87;100.00;99194.09;10331638;28;20292;-84
2021/08/18 09:32:36;;;;;;;4.00;3.70;;;;;;;16.09;100.00;99190.41;10334061;28;20216;-83
2021/08/18 09:38:00;;;;;;;4.40;4.10;;;;;;;16.15;100.00;99199.00;10333616;28;20189;-82
2021/08/18 09:43:25;;;;;;;5.83;3.83;;;;;;;16.26;100.00;99191.97;10332277;28;20299;-83
2021/08/18 09:48:46;;;;;;;3.67;3.47;;;;;;;16.16;100.00;99193.00;10333114;28;20217;-81
2021/08/18 09:54:17;;;;;;;3.80;3.50;;;;;;;16.48;100.00;99195.00;10333851;28;20688;-81
2021/08/18 09:59:43;;;;;;;3.07;2.87;;;;;;;16.64;100.00;99203.34;10331477;28;20541;-80
2021/08/18 10:05:03;;;;;;;3.73;3.43;;;;;;;16.40;100.00;99201.94;10333216;28;20212;-81
2021/08/18 10:10:22;;;;;;;3.77;3.50;;;;;;;16.44;100.00;99205.44;10331709;28;20174;-81
2021/08/18 10:15:41;;;;;;;4.40;4.10;;;;;;;16.45;100.00;99201.44;10332927;28;20193;-81
2021/08/18 10:21:11;;;;;;;3.97;3.67;;;;;;;16.68;100.00;99201.22;10332884;28;20640;-81
2021/08/18 10:26:34;;;;;;;4.27;3.87;;;;;;;16.73;100.00;99212.59;10322994;28;20688;-79
2021/08/18 10:31:52;;;;;;;4.00;3.70;;;;;;;16.95;100.00;99199.69;10332760;28;20178;-79
2021/08/18 10:37:11;;;;;;;4.37;4.13;;;;;;;17.40;100.00;99187.28;10332447;28;20580;-80
2021/08/18 10:42:41;;;;;;;3.70;3.50;;;;;;;17.75;100.00;99192.56;10330925;28;20225;-80
2021/08/18 10:48:03;;;;;;;4.03;3.80;;;;;;;17.72;97.80;99198.25;10331919;28;20663;-82
2021/08/18 10:53:30;;;;;;;3.50;3.20;;;;;;;17.71;94.87;99202.25;10332392;28;20213;-79
2021/08/18 10:58:50;;;;;;;3.17;2.93;;;;;;;17.71;94.82;99191.13;10334782;28;20616;-77
2021/08/18 11:04:46;;;;;;;2.77;2.57;;;;;;;17.89;95.39;99194.13;10339383;28;20269;-76
2021/08/18 11:10:05;;;;;;;2.73;2.53;;;;;;;17.56;96.08;99201.13;10337874;28;20194;-76
2021/08/18 11:15:24;;;;;;;3.10;2.90;;;;;;;17.54;96.96;99198.00;10338976;28;20185;-76
2021/08/18 11:20:47;;;;;;;2.50;2.30;;;;;;;17.24;99.19;99206.03;10338588;28;20178;-76
2021/08/18 11:26:07;;;;;;;2.60;2.40;;;;;;;17.08;100.00;99204.09;10336923;28;20213;-76
2021/08/18 11:31:33;;;;;;;2.60;2.40;;;;;;;17.40;100.00;99195.63;10297975;28;20645;-76
2021/08/18 11:37:04;;;;;;;2.57;2.37;;;;;;;18.18;94.82;99195.59;10297975;28;20174;-76
2021/08/18 11:42:24;;;;;;;2.67;2.47;;;;;;;18.13;94.41;99192.56;10296302;28;20210;-76
2021/08/18 11:47:46;;;;;;;2.80;2.60;;;;;;;18.14;94.76;99186.53;10296268;28;20210;-76
2021/08/18 11:53:07;;;;;;;3.37;3.17;;;;;;;18.34;93.69;99175.19;10297343;28;20629;-77
2021/08/18 11:58:31;;;;;;;3.30;3.10;;;;;;;18.61;93.62;99179.81;10315090;28;20558;-77
2021/08/18 12:03:51;;;;;;;3.97;3.77;;;;;;;18.65;93.79;99172.13;10336158;28;20535;-77
2021/08/18 12:09:21;;;;;;;3.27;3.07;;;;;;;18.58;88.09;99166.78;10336043;28;20205;-78
2021/08/18 12:14:51;;;;;;;2.53;2.33;;;;;;;18.45;88.03;99168.81;10335451;28;20206;-76
2021/08/18 12:20:27;;;;;;;2.40;2.20;;;;;;;19.14;86.69;99170.38;10336404;28;20174;-78
2021/08/18 12:25:46;;;;;;;2.77;2.57;;;;;;;19.23;83.59;99167.63;10334776;28;20209;-76
2021/08/18 12:31:05;;;;;;;3.60;3.00;;;;;;;19.58;84.90;99161.53;10320329;28;20189;-76
2021/08/18 12:36:28;;;;;;;4.43;4.10;;;;;;;19.66;84.23;99148.06;10335740;28;20173;-77
2021/08/18 12:41:54;;;;;;;3.20;3.00;;;;;;;19.73;84.80;99150.56;10334115;28;20229;-77
2021/08/18 12:47:14;;;;;;;2.80;2.60;;;;;;;20.11;80.50;99149.03;10335260;28;20299;-78
2021/08/18 12:52:33;;;;;;;2.87;2.67;;;;;;;20.37;77.29;99148.31;10335144;28;20184;-78
2021/08/18 12:57:52;;;;;;;3.77;3.40;;;;;;;19.80;82.08;99142.69;10333462;28;20185;-78
2021/08/18 13:03:11;;;;;;;2.90;2.53;;;;;;;19.43;82.59;99145.75;10334747;28;20758;-77
2021/08/18 13:08:30;;;;;;;3.60;3.40;;;;;;;19.18;85.30;99140.34;10319473;28;20213;-78
2021/08/18 13:13:49;;;;;;;3.33;3.13;;;;;;;19.87;83.14;99136.06;10332118;28;20201;-78
2021/08/18 13:19:08;;;;;;;3.37;3.17;;;;;;;19.98;80.85;99130.84;10333722;28;20177;-78
2021/08/18 13:24:27;;;;;;;3.83;3.07;;;;;;;20.03;81.24;99127.44;10333044;28;20641;-78
2021/08/18 13:29:47;;;;;;;2.93;2.73;;;;;;;19.85;80.71;99127.34;10330567;28;20208;-77
2021/08/18 13:35:07;;;;;;;3.60;3.40;;;;;;;19.68;81.87;99126.03;10332962;28;20234;-77
2021/08/18 13:40:26;;;;;;;3.17;2.97;;;;;;;19.26;83.62;99105.38;10331411;28;20181;-77
2021/08/18 13:45:45;;;;;;;2.77;2.57;;;;;;;19.48;82.82;99100.50;10333587;28;20679;-76
2021/08/18 13:51:04;;;;;;;2.90;2.70;;;;;;;19.91;81.02;99100.38;10333387;28;20173;-77
2021/08/18 13:56:23;;;;;;;2.50;2.40;;;;;;;20.11;80.01;99098.75;10331718;28;20543;-76
2021/08/18 14:01:42;;;;;;;6.30;3.30;;;;;;;19.78;80.93;99102.53;10332855;28;20192;-77
2021/08/18 14:07:00;;;;;;;2.63;2.43;;;;;;;19.59;82.18;99098.09;10332770;28;20212;-76
2021/08/18 14:12:19;;;;;;;3.13;2.90;;;;;;;19.46;82.93;99103.00;10331570;28;20181;-76
2021/08/18 14:17:38;;;;;;;3.20;2.70;;;;;;;19.29;83.38;99096.09;10332749;28;20531;-77
2021/08/18 14:22:59;;;;;;;3.10;2.90;;;;;;;19.34;83.50;99092.69;10331507;28;20215;-77
2021/08/18 14:28:18;;;;;;;3.17;2.90;;;;;;;19.44;83.52;99094.31;10330391;28;20205;-76
2021/08/18 14:33:37;;;;;;;4.20;3.10;;;;;;;19.48;82.69;99090.16;10338455;28;20217;-76
2021/08/18 14:38:56;;;;;;;4.10;3.40;;;;;;;19.93;82.11;99086.75;10339233;28;20178;-77
2021/08/18 14:44:15;;;;;;;4.03;3.73;;;;;;;20.53;79.44;99078.16;10337836;28;20217;-76
2021/08/18 14:49:34;;;;;;;3.70;3.50;;;;;;;20.34;78.50;99076.59;10339224;28;20217;-76
2021/08/18 14:54:53;;;;;;;3.80;3.60;;;;;;;20.05;79.03;99079.03;10338664;28;20181;-77
2021/08/18 15:00:13;;;;;;;4.73;4.33;;;;;;;20.03;80.16;99075.91;10339387;28;20182;-76
2021/08/18 15:05:33;;;;;;;4.10;3.80;;;;;;;19.80;81.45;99077.69;10339177;28;20201;-76
2021/08/18 15:10:52;;;;;;;6.73;3.30;;;;;;;19.66;79.78;99078.28;10337837;28;20182;-77
2021/08/18 15:16:10;;;;;;;3.30;3.10;;;;;;;19.53;79.99;99080.41;10338586;28;20190;-77
2021/08/18 15:21:29;;;;;;;4.03;3.80;;;;;;;19.76;79.78;99074.28;10337858;28;20178;-76
2021/08/18 15:26:48;;;;;;;3.50;3.23;;;;;;;19.80;79.29;99066.53;10336939;28;20212;-76
2021/08/18 15:32:08;;;;;;;3.43;3.23;;;;;;;19.94;79.25;99069.50;10337406;28;20178;-76
2021/08/18 15:37:29;;;;;;;4.77;3.20;;;;;;;20.55;76.74;99075.69;10338078;28;20177;-76
2021/08/18 15:42:48;;;;;;;3.33;3.13;;;;;;;20.34;75.92;99071.03;10335567;28;20216;-77
2021/08/18 15:48:08;;;;;;;3.40;3.20;;;;;;;20.26;74.97;99060.59;10337155;28;20204;-76
2021/08/18 15:53:27;;;;;;;4.17;3.87;;;;;;;20.31;75.54;99057.97;10337465;28;20562;-77
2021/08/18 15:58:46;;;;;;;4.10;3.70;;;;;;;20.50;74.10;99058.75;10335894;28;20645;-77
2021/08/18 16:04:05;;;;;;;4.07;3.70;;;;;;;20.47;74.59;99049.28;10336311;28;20231;-79
2021/08/18 16:09:24;;;;;;;3.67;3.47;;;;;;;20.34;75.85;99040.28;10335414;28;20209;-78
2021/08/18 16:14:43;;;;;;;3.97;3.67;;;;;;;20.32;73.87;99037.16;10298821;28;20182;-78
2021/08/18 16:20:04;;;;;;;3.93;3.60;;;;;;;20.27;75.00;99039.81;10295348;28;20264;-78
2021/08/18 16:25:23;;;;;;;5.80;4.70;;;;;;;20.14;75.29;99031.56;10294573;28;20202;-78
2021/08/18 16:30:41;;;;;;;9.30;4.53;;;;;;;20.23;75.56;99026.00;10295749;28;20190;-79
2021/08/18 16:36:00;;;;;;;4.40;4.10;;;;;;;20.11;75.63;99023.34;10295620;28;20257;-78
2021/08/18 16:41:19;;;;;;;4.43;4.13;;;;;;;20.06;76.56;99030.31;10300382;28;20308;-78
2021/08/18 16:46:40;;;;;;;3.70;3.40;;;;;;;19.79;76.22;99026.66;10332055;28;20213;-78
2021/08/18 16:51:59;;;;;;;3.80;3.50;;;;;;;19.73;74.75;99028.53;10325344;28;20208;-78
2021/08/18 16:57:18;;;;;;;3.40;3.10;;;;;;;19.62;74.00;99022.59;10331642;28;20185;-80
2021/08/18 17:02:37;;;;;;;3.60;3.40;;;;;;;19.59;73.90;99022.75;10321797;28;20637;-78
2021/08/18 17:07:56;;;;;;;3.27;3.07;;;;;;;19.52;73.90;99023.78;10319026;28;20210;-77
2021/08/18 17:13:15;;;;;;;3.70;3.40;;;;;;;19.55;73.82;99020.09;10293613;28;20217;-77
2021/08/18 17:18:37;;;;;;;3.03;2.83;;;;;;;19.44;75.02;99022.53;10317942;28;20182;-77
2021/08/18 17:23:56;;;;;;;3.37;3.17;;;;;;;19.53;74.74;99008.59;10293679;28;20193;-77
2021/08/18 17:29:15;;;;;;;3.33;3.03;;;;;;;19.48;75.30;99005.66;10291691;28;20371;-78
2021/08/18 17:34:34;;;;;;;3.20;2.90;;;;;;;19.40;76.23;99005.16;10312750;28;20625;-78
2021/08/18 17:39:53;;;;;;;3.60;3.40;;;;;;;19.35;76.40;99008.53;10306949;28;20181;-77
2021/08/18 17:45:13;;;;;;;3.60;3.40;;;;;;;19.30;78.23;99011.19;10332488;28;20221;-78
2021/08/18 17:50:32;;;;;;;3.63;3.33;;;;;;;19.30;78.14;99017.53;10331998;28;20177;-79
2021/08/18 17:55:51;;;;;;;3.17;2.97;;;;;;;19.26;78.77;99016.88;10302525;28;20212;-78
2021/08/18 18:01:10;;;;;;;4.20;3.80;;;;;;;19.28;79.27;99019.22;10328120;28;20177;-78
2021/08/18 18:06:30;;;;;;;5.00;3.57;;;;;;;19.12;80.20;99022.25;10335512;28;20217;-79
2021/08/18 18:11:49;;;;;;;3.80;3.50;;;;;;;19.09;80.69;99020.34;10340103;28;20177;-78
2021/08/18 18:17:08;;;;;;;4.10;3.70;;;;;;;19.11;80.94;99025.47;10341345;28;20181;-78
2021/08/18 18:22:28;;;;;;;3.60;3.40;;;;;;;18.96;81.12;99014.09;10340954;28;20177;-78
2021/08/18 18:27:48;;;;;;;4.13;3.60;;;;;;;18.94;82.08;99019.34;10339440;28;20205;-78
2021/08/18 18:33:07;;;;;;;3.50;3.30;;;;;;;18.87;82.19;99018.81;10339711;28;20189;-78
2021/08/18 18:38:26;;;;;;;3.80;3.50;;;;;;;18.82;82.53;99011.06;10339464;28;20185;-78
2021/08/18 18:43:45;;;;;;;3.77;3.47;;;;;;;18.88;81.97;99012.81;10338481;28;20244;-79
2021/08/18 18:49:05;;;;;;;3.77;3.57;;;;;;;18.82;82.72;99016.63;10338960;28;20205;-79
2021/08/18 18:54:24;;;;;;;3.40;3.20;;;;;;;18.70;84.39;99018.25;10339803;28;20166;-77
2021/08/18 18:59:45;;;;;;;3.63;3.27;;;;;;;18.63;85.74;99017.72;10337801;28;20181;-79
2021/08/18 19:05:05;;;;;;;3.90;3.70;;;;;;;18.61;87.14;99026.56;10339284;28;20197;-78
2021/08/18 19:10:24;;;;;;;3.00;2.80;;;;;;;18.52;88.12;99034.84;10337618;28;20189;-78
2021/08/18 19:15:43;;;;;;;3.40;3.20;;;;;;;18.41;89.03;99030.13;10338770;28;20189;-78
2021/08/18 19:21:02;;;;;;;3.30;3.00;;;;;;;18.47;89.33;99034.63;10337519;28;20185;-79
2021/08/18 19:26:21;;;;;;;2.70;2.50;;;;;;;18.41;89.66;99031.66;10337026;28;20205;-78
2021/08/18 19:31:40;;;;;;;3.10;2.90;;;;;;;18.34;90.14;99028.34;10338344;28;20189;-78
2021/08/18 19:36:59;;;;;;;3.03;2.83;;;;;;;18.37;90.28;99027.47;10338152;28;20186;-78
2021/08/18 19:42:19;;;;;;;2.97;2.23;;;;;;;18.37;90.82;99021.09;10336393;28;20308;-78
2021/08/18 19:47:38;;;;;;;2.33;2.23;;;;;;;18.25;91.36;99019.16;10337209;28;20256;-79
2021/08/18 19:52:58;;;;;;;2.30;2.20;;;;;;;18.29;91.22;99012.25;10337616;28;20181;-78
2021/08/18 19:58:16;;;;;;;2.30;2.10;;;;;;;18.16;90.96;99011.47;10336081;28;20185;-78
2021/08/18 20:03:37;;;;;;;3.40;1.83;;;;;;;18.14;91.55;99011.13;10337200;28;20173;-79
2021/08/18 20:08:56;;;;;;;2.20;2.10;;;;;;;18.00;92.07;99008.84;10336406;28;20209;-79
2021/08/18 20:14:15;;;;;;;1.77;1.67;;;;;;;18.13;91.25;99017.94;10335296;28;20193;-78
2021/08/18 20:19:34;;;;;;;1.97;1.87;;;;;;;18.06;91.31;99022.97;10329701;28;20193;-78
2021/08/18 20:24:53;;;;;;;1.50;1.40;;;;;;;18.02;91.38;99022.31;10336312;28;20201;-78
2021/08/18 20:30:12;;;;;;;1.70;1.60;;;;;;;17.95;92.55;99017.00;10335432;28;20271;-78
2021/08/18 20:35:32;;;;;;;1.63;1.53;;;;;;;17.90;92.71;99026.69;10336074;28;20248;-78
2021/08/18 20:40:51;;;;;;;1.50;1.40;;;;;;;17.94;92.13;99027.34;10333630;28;20229;-79
2021/08/18 20:46:10;;;;;;;1.70;1.60;;;;;;;17.85;92.93;99035.63;10335202;28;20213;-78
2021/08/18 20:51:29;;;;;;;1.80;1.70;;;;;;;17.87;93.02;99024.03;10335507;28;20177;-78
2021/08/18 20:56:51;;;;;;;1.93;1.70;;;;;;;17.88;93.91;99014.44;10333832;28;20632;-78
2021/08/18 21:02:10;;;;;;;2.27;1.53;;;;;;;17.82;93.95;99019.03;10334959;28;20177;-78
2021/08/18 21:07:29;;;;;;;1.80;1.70;;;;;;;17.79;94.36;99019.91;10333320;28;20659;-79
2021/08/18 21:12:48;;;;;;;1.90;1.80;;;;;;;17.80;95.46;99021.47;10332821;28;20177;-79
2021/08/18 21:18:07;;;;;;;1.77;1.67;;;;;;;17.77;95.71;99016.81;10294258;28;20213;-78
2021/08/18 21:23:26;;;;;;;1.83;1.73;;;;;;;17.71;96.94;99013.03;10293109;28;20552;-78
2021/08/18 21:28:45;;;;;;;2.00;1.90;;;;;;;17.67;97.04;99026.31;10292258;28;20202;-79
2021/08/18 21:34:04;;;;;;;1.97;1.87;;;;;;;17.60;98.51;99021.75;10293641;28;20174;-79
2021/08/18 21:39:23;;;;;;;2.30;2.20;;;;;;;17.52;99.00;99025.22;10293589;28;20178;-78
2021/08/18 21:44:42;;;;;;;2.20;2.10;;;;;;;17.50;99.75;99022.09;10306721;28;20225;-78
2021/08/18 21:50:02;;;;;;;2.00;1.90;;;;;;;17.55;99.27;99021.53;10332850;28;20248;-79
2021/08/18 21:55:21;;;;;;;1.97;1.87;;;;;;;17.54;99.64;99019.97;10331928;28;20177;-79
2021/08/18 22:00:40;;;;;;;2.13;1.93;;;;;;;17.42;100.00;99012.44;10333379;28;20209;-78
2021/08/18 22:05:59;;;;;;;1.80;1.70;;;;;;;17.42;100.00;99009.66;10332115;28;20197;-78
2021/08/18 22:11:18;;;;;;;1.77;1.67;;;;;;;17.44;100.00;99014.75;10331909;28;20227;-79
2021/08/18 22:16:37;;;;;;;2.37;2.17;;;;;;;17.42;100.00;99008.84;10332734;28;20185;-78
2021/08/18 22:21:56;;;;;;;1.80;1.70;;;;;;;17.38;100.00;99006.19;10332895;28;20281;-78
2021/08/18 22:27:15;;;;;;;2.23;2.03;;;;;;;17.43;100.00;99013.19;10331367;28;20205;-77
2021/08/18 22:32:34;;;;;;;1.80;1.70;;;;;;;17.38;100.00;99011.75;10331627;28;20535;-78
2021/08/18 22:37:53;;;;;;;2.10;1.90;;;;;;;17.39;100.00;99007.75;10332681;28;20257;-78
2021/08/18 22:43:12;;;;;;;2.07;1.87;;;;;;;17.35;100.00;99011.84;10330442;28;20225;-78
2021/08/18 22:48:31;;;;;;;2.10;2.00;;;;;;;17.31;100.00;99006.41;10332044;28;20236;-79
2021/08/18 22:53:51;;;;;;;1.90;1.80;;;;;;;17.40;100.00;99008.53;10335195;28;20256;-79
2021/08/18 22:59:10;;;;;;;3.30;2.00;;;;;;;17.40;100.00;99014.88;10338620;28;20543;-78
2021/08/18 23:04:29;;;;;;;3.60;2.30;;;;;;;17.38;100.00;99017.31;10338039;28;20622;-78
2021/08/18 23:09:48;;;;;;;2.90;2.63;;;;;;;17.36;100.00;99019.78;10338739;28;20205;-79
2021/08/18 23:15:08;;;;;;;2.40;2.30;;;;;;;17.27;100.00;99022.41;10298789;28;20210;-78
2021/08/18 23:20:27;;;;;;;2.03;1.93;;;;;;;17.21;100.00;99020.63;10298460;28;20178;-79
2021/08/18 23:25:46;;;;;;;2.13;2.00;;;;;;;17.26;100.00;99015.28;10296955;28;20209;-79
2021/08/18 23:31:05;;;;;;;3.50;1.97;;;;;;;17.16;100.00;99013.63;10298144;28;20209;-78
2021/08/18 23:36:24;;;;;;;2.87;2.67;;;;;;;17.13;100.00;99010.94;10298124;28;20177;-79
2021/08/18 23:41:43;;;;;;;2.90;2.70;;;;;;;17.16;100.00;99015.63;10309335;28;20221;-79
2021/08/18 23:47:02;;;;;;;9.53;2.60;;;;;;;17.11;100.00;99018.94;10337603;28;20299;-79
2021/08/18 23:52:23;;;;;;;4.13;2.60;;;;;;;17.20;100.00;99013.50;10337684;28;20185;-80
2021/08/18 23:57:41;;;;;;;2.70;2.50;;;;;;;17.09;100.00;99005.50;10336410;28;20201;-80
